createdAt,value
2019-04-27T00:01:45.319Z,2.42
2019-04-27T00:04:37.523Z,2.37
2019-04-27T00:07:29.252Z,2.83
2019-04-27T00:10:26.293Z,2.90
2019-04-27T00:13:10.703Z,2.62
2019-04-27T00:16:09.925Z,3.10
2019-04-27T00:21:35.152Z,3.75
2019-04-27T00:24:23.539Z,5.50
2019-04-27T00:27:12.968Z,7.25
2019-04-27T00:29:59.933Z,9.78
2019-04-27T00:32:47.166Z,8.95
2019-04-27T00:35:35.913Z,10.00
2019-04-27T00:38:24.632Z,11.53
2019-04-27T00:41:14.247Z,12.03
2019-04-27T00:44:01.430Z,12.15
2019-04-27T00:46:48.388Z,11.78
2019-04-27T00:49:35.947Z,10.43
2019-04-27T00:52:23.996Z,13.40
2019-04-27T00:55:13.084Z,12.50
2019-04-27T00:58:01.828Z,12.50
2019-04-27T01:00:54.034Z,12.50
2019-04-27T01:03:45.500Z,14.78
2019-04-27T01:06:33.627Z,16.02
2019-04-27T01:09:23.656Z,15.30
2019-04-27T01:12:11.259Z,16.15
2019-04-27T01:14:58.673Z,15.05
2019-04-27T01:17:45.855Z,17.67
2019-04-27T01:20:33.004Z,17.32
2019-04-27T01:23:20.251Z,21.82
2019-04-27T01:29:05.623Z,15.23
2019-04-27T01:31:52.958Z,16.48
2019-04-27T01:34:39.843Z,19.70
2019-04-27T01:37:28.517Z,19.02
2019-04-27T01:40:16.065Z,20.60
2019-04-27T01:45:49.950Z,20.70
2019-04-27T01:48:38.677Z,22.35
2019-04-27T01:51:25.714Z,22.27
2019-04-27T01:54:14.395Z,24.02
2019-04-27T01:57:04.151Z,23.83
2019-04-27T01:59:50.682Z,24.35
2019-04-27T02:02:42.427Z,22.05
2019-04-27T02:05:31.520Z,23.90
2019-04-27T02:08:19.612Z,27.15
2019-04-27T02:11:07.375Z,27.30
2019-04-27T02:13:54.425Z,26.87
2019-04-27T02:16:41.832Z,27.35
2019-04-27T02:19:30.123Z,26.85
2019-04-27T02:22:18.533Z,27.15
2019-04-27T02:25:08.943Z,28.52
2019-04-27T02:27:59.274Z,29.20
2019-04-27T02:30:49.840Z,28.00
2019-04-27T02:33:44.693Z,29.15
2019-04-27T02:36:32.134Z,25.72
2019-04-27T02:39:21.633Z,26.50
2019-04-27T02:42:10.156Z,26.15
2019-04-27T02:44:59.769Z,31.37
2019-04-27T02:47:48.997Z,25.80
2019-04-27T02:50:35.762Z,27.50
2019-04-27T02:53:41.460Z,26.77
2019-04-27T02:56:30.480Z,26.50
2019-04-27T02:59:19.686Z,28.90
2019-04-27T03:02:10.943Z,27.50
2019-04-27T03:05:00.641Z,26.02
2019-04-27T03:07:46.968Z,26.48
2019-04-27T03:10:34.279Z,24.47
2019-04-27T03:16:14.081Z,21.25
2019-04-27T03:19:18.101Z,21.37
2019-04-27T03:22:14.909Z,21.97
2019-04-27T03:25:11.614Z,22.25
2019-04-27T03:28:02.413Z,23.02
2019-04-27T03:30:52.238Z,22.37
2019-04-27T03:33:42.294Z,22.50
2019-04-27T03:36:26.222Z,21.30
2019-04-27T03:39:13.538Z,21.25
2019-04-27T03:44:47.137Z,20.17
2019-04-27T03:47:35.206Z,19.05
2019-04-27T03:50:24.239Z,20.95
2019-04-27T03:53:25.398Z,22.13
2019-04-27T03:56:14.455Z,23.55
2019-04-27T03:59:06.477Z,25.00
2019-04-27T04:01:53.631Z,26.12
2019-04-27T04:04:40.821Z,27.15
2019-04-27T04:07:30.016Z,26.77
2019-04-27T04:10:19.800Z,29.70
2019-04-27T04:13:17.479Z,29.07
2019-04-27T04:16:10.852Z,28.62
2019-04-27T04:19:00.890Z,28.67
2019-04-27T04:21:50.422Z,29.52
2019-04-27T04:24:39.555Z,28.85
2019-04-27T04:27:26.163Z,28.12
2019-04-27T04:30:13.639Z,30.25
2019-04-27T04:33:01.254Z,29.23
2019-04-27T04:35:49.689Z,29.95
2019-04-27T04:38:36.828Z,29.90
2019-04-27T04:41:43.681Z,28.10
2019-04-27T04:44:31.663Z,25.82
2019-04-27T04:47:32.806Z,27.77
2019-04-27T04:50:22.796Z,26.65
2019-04-27T04:53:12.595Z,26.15
2019-04-27T04:55:57.540Z,23.67
2019-04-27T04:58:45.066Z,24.87
2019-04-27T05:01:32.190Z,23.50
2019-04-27T05:04:19.481Z,22.48
2019-04-27T05:07:06.851Z,19.90
2019-04-27T05:09:54.180Z,19.62
2019-04-27T05:12:41.480Z,20.37
2019-04-27T05:15:29.341Z,19.80
2019-04-27T05:18:16.791Z,20.48
2019-04-27T05:21:08.838Z,21.00
2019-04-27T05:23:56.233Z,21.65
2019-04-27T05:26:43.369Z,22.80
2019-04-27T05:29:31.021Z,22.05
2019-04-27T05:32:18.876Z,21.75
2019-04-27T05:35:08.704Z,20.65
2019-04-27T05:37:55.744Z,20.80
2019-04-27T05:40:42.933Z,22.30
2019-04-27T05:43:39.010Z,20.35
2019-04-27T05:46:44.601Z,23.85
2019-04-27T05:49:36.395Z,19.90
2019-04-27T05:52:29.320Z,21.65
2019-04-27T05:55:16.511Z,20.17
2019-04-27T05:58:03.811Z,19.92
2019-04-27T06:03:39.402Z,17.10
2019-04-27T06:06:26.139Z,17.30
2019-04-27T06:09:13.175Z,16.80
2019-04-27T06:12:00.339Z,16.57
2019-04-27T06:14:49.297Z,16.20
2019-04-27T06:17:36.071Z,17.80
2019-04-27T06:20:23.468Z,17.62
2019-04-27T06:23:10.747Z,15.72
2019-04-27T06:26:01.127Z,13.28
2019-04-27T06:28:46.992Z,13.43
2019-04-27T06:31:34.163Z,12.43
2019-04-27T06:34:21.866Z,11.95
2019-04-27T06:37:09.574Z,11.00
2019-04-27T06:39:57.144Z,9.75
2019-04-27T06:42:45.357Z,9.63
2019-04-27T06:45:32.164Z,8.38
2019-04-27T06:48:19.442Z,8.23
2019-04-27T06:51:06.873Z,8.23
2019-04-27T06:53:53.860Z,7.55
2019-04-27T06:59:28.725Z,6.47
2019-04-27T07:02:16.135Z,6.10
2019-04-27T07:05:04.856Z,5.60
2019-04-27T07:07:51.472Z,4.72
2019-04-27T07:13:26.839Z,4.20
2019-04-27T07:16:14.080Z,4.42
2019-04-27T07:19:01.761Z,4.15
2019-04-27T07:21:49.810Z,4.30
2019-04-27T07:24:36.922Z,3.98
2019-04-27T07:27:24.184Z,3.98
2019-04-27T07:30:12.066Z,3.10
2019-04-27T07:33:00.413Z,3.62
2019-04-27T07:35:49.034Z,3.77
2019-04-27T07:38:36.537Z,3.87
2019-04-27T07:41:24.108Z,3.83
2019-04-27T07:44:15.616Z,3.33
2019-04-27T07:47:20.959Z,3.95
2019-04-27T07:50:09.696Z,3.67
2019-04-27T07:52:58.547Z,4.12
2019-04-27T07:55:45.681Z,4.28
2019-04-27T07:58:32.889Z,4.60
2019-04-27T08:01:20.611Z,5.08
2019-04-27T08:04:09.048Z,4.40
2019-04-27T08:06:56.263Z,4.37
2019-04-27T08:09:43.322Z,3.58
2019-04-27T08:12:30.351Z,3.83
2019-04-27T08:18:03.512Z,3.67
2019-04-27T08:20:50.869Z,3.80
2019-04-27T08:23:39.408Z,4.17
2019-04-27T08:26:28.700Z,4.17
2019-04-27T08:29:20.596Z,4.70
2019-04-27T08:32:12.013Z,3.92
2019-04-27T08:34:59.525Z,4.47
2019-04-27T08:37:46.696Z,4.75
2019-04-27T08:43:19.768Z,5.08
2019-04-27T08:46:08.623Z,5.50
2019-04-27T08:48:56.040Z,5.15
2019-04-27T08:51:56.048Z,4.95
2019-04-27T08:54:31.995Z,5.35
2019-04-27T08:57:19.595Z,4.60
2019-04-27T09:02:54.141Z,4.40
2019-04-27T09:05:41.547Z,4.30
2019-04-27T09:08:42.962Z,4.65
2019-04-27T09:11:50.151Z,4.60
2019-04-27T09:14:40.705Z,4.95
2019-04-27T09:17:31.019Z,5.42
2019-04-27T09:20:19.843Z,4.60
2019-04-27T09:23:09.704Z,5.12
2019-04-27T09:25:56.931Z,4.42
2019-04-27T09:28:45.925Z,3.80
2019-04-27T09:31:34.683Z,4.55
2019-04-27T09:34:21.634Z,4.45
2019-04-27T09:37:09.689Z,4.37
2019-04-27T09:39:57.257Z,5.42
2019-04-27T09:42:46.369Z,4.95
2019-04-27T09:45:34.992Z,4.85
2019-04-27T09:48:22.135Z,5.00
2019-04-27T09:51:09.516Z,4.80
2019-04-27T09:53:56.782Z,4.05
2019-04-27T09:56:46.759Z,4.00
2019-04-27T09:59:34.712Z,4.60
2019-04-27T10:02:21.984Z,4.08
2019-04-27T10:05:09.484Z,4.03
2019-04-27T10:07:57.065Z,3.80
2019-04-27T10:10:46.025Z,3.65
2019-04-27T10:13:33.734Z,3.12
2019-04-27T10:16:21.179Z,3.62
2019-04-27T10:19:08.684Z,3.92
2019-04-27T10:21:56.465Z,4.20
2019-04-27T10:24:44.545Z,3.85
2019-04-27T10:27:33.313Z,4.40
2019-04-27T10:30:20.677Z,4.95
2019-04-27T10:33:09.005Z,3.92
2019-04-27T10:36:01.715Z,3.60
2019-04-27T10:38:49.602Z,3.10
2019-04-27T10:41:39.336Z,3.10
2019-04-27T10:44:26.707Z,2.52
2019-04-27T10:47:16.128Z,3.17
2019-04-27T10:50:07.042Z,2.50
2019-04-27T10:52:54.315Z,2.80
2019-04-27T10:55:42.193Z,2.50
2019-04-27T10:58:30.063Z,2.83
2019-04-27T11:01:17.674Z,2.65
2019-04-27T11:04:15.922Z,2.72
2019-04-27T11:07:07.077Z,2.90
2019-04-27T11:09:54.423Z,3.20
2019-04-27T11:12:45.852Z,3.50
2019-04-27T11:15:37.013Z,2.55
2019-04-27T11:18:23.178Z,2.92
2019-04-27T11:21:10.716Z,3.47
2019-04-27T11:23:58.238Z,4.05
2019-04-27T11:26:46.870Z,4.37
2019-04-27T11:29:36.537Z,4.08
2019-04-27T11:32:25.017Z,3.70
2019-04-27T11:35:20.537Z,3.80
2019-04-27T11:38:08.975Z,3.47
2019-04-27T11:40:56.775Z,3.50
2019-04-27T11:43:46.445Z,3.15
2019-04-27T11:46:34.117Z,3.02
2019-04-27T11:49:21.590Z,2.95
2019-04-27T11:52:09.434Z,3.10
2019-04-27T11:54:56.909Z,2.77
2019-04-27T11:57:46.922Z,3.58
2019-04-27T12:00:34.333Z,3.65
2019-04-27T12:03:22.136Z,4.37
2019-04-27T12:06:10.376Z,4.15
2019-04-27T12:08:57.794Z,5.67
2019-04-27T12:11:45.729Z,4.83
2019-04-27T12:14:36.227Z,4.50
2019-04-27T12:17:25.730Z,3.52
2019-04-27T12:20:15.935Z,3.70
2019-04-27T12:23:06.367Z,3.30
2019-04-27T12:25:56.190Z,3.40
2019-04-27T12:28:47.071Z,3.50
2019-04-27T12:31:38.863Z,3.42
2019-04-27T12:34:27.881Z,2.67
2019-04-27T12:37:15.718Z,3.12
2019-04-27T12:40:07.407Z,2.50
2019-04-27T12:42:55.029Z,1.80
2019-04-27T12:45:43.677Z,1.82
2019-04-27T12:48:37.542Z,2.12
2019-04-27T12:51:24.855Z,1.95
2019-04-27T12:54:16.180Z,2.00
2019-04-27T12:57:06.012Z,2.40
2019-04-27T12:59:57.559Z,2.80
2019-04-27T13:02:45.940Z,3.35
2019-04-27T13:05:35.853Z,3.55
2019-04-27T13:08:23.416Z,3.58
2019-04-27T13:11:11.814Z,3.83
2019-04-27T13:13:59.998Z,3.20
2019-04-27T13:16:47.990Z,3.02
2019-04-27T13:19:36.760Z,3.77
2019-04-27T13:22:25.377Z,3.90
2019-04-27T13:25:15.171Z,5.28
2019-04-27T13:28:03.225Z,0.75
2019-04-27T13:30:50.701Z,0.72
2019-04-27T13:33:38.910Z,0.78
2019-04-27T13:36:27.982Z,0.60
2019-04-27T13:39:15.897Z,0.88
2019-04-27T13:42:03.748Z,0.68
2019-04-27T13:44:51.089Z,1.00
2019-04-27T13:47:43.389Z,0.90
2019-04-27T13:50:38.647Z,1.00
2019-04-27T13:53:26.233Z,0.90
2019-04-27T13:56:17.381Z,1.12
2019-04-27T13:59:07.742Z,0.70
2019-04-27T14:01:55.371Z,0.98
2019-04-27T14:04:43.463Z,0.95
2019-04-27T14:07:31.310Z,0.98
2019-04-27T14:10:20.339Z,1.00
2019-04-27T14:13:10.910Z,0.88
2019-04-27T14:15:57.361Z,1.00
2019-04-27T14:18:45.272Z,1.00
2019-04-27T14:21:33.224Z,1.10
2019-04-27T14:24:30.273Z,1.20
2019-04-27T14:27:15.130Z,1.20
2019-04-27T14:30:04.845Z,1.20
2019-04-27T14:32:53.052Z,1.40
2019-04-27T14:35:40.879Z,1.30
2019-04-27T14:38:28.784Z,1.47
2019-04-27T14:41:16.864Z,1.40
2019-04-27T14:44:08.333Z,1.40
2019-04-27T14:46:54.950Z,1.17
2019-04-27T14:49:44.659Z,1.42
2019-04-27T14:52:34.648Z,1.52
2019-04-27T14:55:22.357Z,1.10
2019-04-27T14:58:10.619Z,1.40
2019-04-27T15:00:58.549Z,1.65
2019-04-27T15:03:46.797Z,1.72
2019-04-27T15:06:35.152Z,1.70
2019-04-27T15:09:23.996Z,1.17
2019-04-27T15:12:12.840Z,1.00
2019-04-27T15:15:01.519Z,1.15
2019-04-27T15:17:49.462Z,1.30
2019-04-27T15:20:41.661Z,1.10
2019-04-27T15:23:31.046Z,1.47
2019-04-27T15:26:20.299Z,1.67
2019-04-27T15:29:11.937Z,1.10
2019-04-27T15:32:03.153Z,1.40
2019-04-27T15:34:53.646Z,1.32
2019-04-27T15:37:42.593Z,1.37
2019-04-27T15:40:43.998Z,1.40
2019-04-27T15:43:38.524Z,1.17
2019-04-27T15:46:29.373Z,1.05
2019-04-27T15:49:13.945Z,1.47
2019-04-27T15:52:01.215Z,1.30
2019-04-27T15:54:48.419Z,1.12
2019-04-27T15:57:38.127Z,1.20
2019-04-27T16:00:28.780Z,1.60
2019-04-27T16:03:16.112Z,1.90
2019-04-27T16:06:07.500Z,1.30
2019-04-27T16:08:52.223Z,1.50
2019-04-27T16:11:41.193Z,1.60
2019-04-27T16:14:28.944Z,1.45
2019-04-27T16:17:18.187Z,1.90
2019-04-27T16:20:05.703Z,1.52
2019-04-27T16:22:56.724Z,1.82
2019-04-27T16:25:48.632Z,1.55
2019-04-27T16:28:33.249Z,1.90
2019-04-27T16:31:24.910Z,1.50
2019-04-27T16:34:10.066Z,2.00
2019-04-27T16:36:59.183Z,1.72
2019-04-27T16:39:49.404Z,1.70
2019-04-27T16:42:38.379Z,1.70
2019-04-27T16:45:27.186Z,1.80
2019-04-27T16:48:14.587Z,1.20
2019-04-27T16:51:02.572Z,1.60
2019-04-27T16:53:49.980Z,1.47
2019-04-27T16:56:38.097Z,1.30
2019-04-27T16:59:40.994Z,2.52
2019-04-27T17:02:17.305Z,1.42
2019-04-27T17:05:04.276Z,1.92
2019-04-27T17:07:51.832Z,1.27
2019-04-27T17:10:39.293Z,1.30
2019-04-27T17:13:28.056Z,1.35
2019-04-27T17:16:36.159Z,1.07
2019-04-27T17:19:28.677Z,1.40
2019-04-27T17:22:18.292Z,1.40
2019-04-27T17:25:08.835Z,1.20
2019-04-27T17:28:03.893Z,1.27
2019-04-27T17:30:47.220Z,1.85
2019-04-27T17:33:38.096Z,1.50
2019-04-27T17:36:25.282Z,1.92
2019-04-27T17:39:13.087Z,1.15
2019-04-27T17:42:00.088Z,1.47
2019-04-27T17:44:48.554Z,1.22
2019-04-27T17:47:38.750Z,1.32
2019-04-27T17:50:28.042Z,1.62
2019-04-27T17:53:18.104Z,1.42
2019-04-27T17:56:06.062Z,1.27
2019-04-27T17:58:53.883Z,1.80
2019-04-27T18:01:41.834Z,1.60
2019-04-27T18:04:32.926Z,1.67
2019-04-27T18:07:19.109Z,1.40
2019-04-27T18:10:08.736Z,1.42
2019-04-27T18:12:58.156Z,1.32
2019-04-27T18:15:45.708Z,1.40
2019-04-27T18:18:37.989Z,1.72
2019-04-27T18:21:28.280Z,1.77
2019-04-27T18:24:18.623Z,2.17
2019-04-27T18:27:10.603Z,2.02
2019-04-27T18:30:10.462Z,2.17
2019-04-27T18:32:59.170Z,2.25
2019-04-27T18:35:46.157Z,2.05
2019-04-27T18:38:35.571Z,2.10
2019-04-27T18:41:23.417Z,2.72
2019-04-27T18:44:11.599Z,2.83
2019-04-27T18:47:02.162Z,2.35
2019-04-27T18:49:59.837Z,2.90
2019-04-27T18:52:49.567Z,2.83
2019-04-27T18:55:37.974Z,2.87
2019-04-27T18:58:25.405Z,2.25
2019-04-27T19:01:14.880Z,2.40
2019-04-27T19:04:03.642Z,2.55
2019-04-27T19:06:50.987Z,2.72
2019-04-27T19:09:38.607Z,3.22
2019-04-27T19:12:25.971Z,2.90
2019-04-27T19:15:13.500Z,2.37
2019-04-27T19:18:01.905Z,2.08
2019-04-27T19:20:50.637Z,1.98
2019-04-27T19:23:40.296Z,1.90
2019-04-27T19:26:48.468Z,2.05
2019-04-27T19:29:39.674Z,2.27
2019-04-27T19:32:28.238Z,2.62
2019-04-27T19:35:19.752Z,2.05
2019-04-27T19:38:05.524Z,2.00
2019-04-27T19:40:53.027Z,0.88
2019-04-27T19:43:40.573Z,1.05
2019-04-27T19:46:28.584Z,0.65
2019-04-27T19:49:16.813Z,1.05
2019-04-27T19:52:04.939Z,1.07
2019-04-27T19:54:52.317Z,1.37
2019-04-27T19:57:42.075Z,2.25
2019-04-27T20:00:48.398Z,2.62
2019-04-27T20:03:43.965Z,1.65
2019-04-27T20:06:31.234Z,1.47
2019-04-27T20:09:36.461Z,1.22
2019-04-27T20:12:24.120Z,2.00
2019-04-27T20:15:12.212Z,1.72
2019-04-27T20:18:00.847Z,2.02
2019-04-27T20:20:48.186Z,1.70
2019-04-27T20:23:35.986Z,1.92
2019-04-27T20:26:23.502Z,1.27
2019-04-27T20:29:11.816Z,1.70
2019-04-27T20:32:01.480Z,2.12
2019-04-27T20:34:48.698Z,1.60
2019-04-27T20:37:36.842Z,1.35
2019-04-27T20:40:24.131Z,1.50
2019-04-27T20:43:12.246Z,1.40
2019-04-27T20:46:00.919Z,1.77
2019-04-27T20:48:48.755Z,1.62
2019-04-27T20:51:52.880Z,1.47
2019-04-27T20:54:41.343Z,1.55
2019-04-27T20:57:28.167Z,1.25
2019-04-27T21:00:17.620Z,1.30
2019-04-27T21:03:12.528Z,1.95
2019-04-27T21:06:17.167Z,1.65
2019-04-27T21:09:10.889Z,2.27
2019-04-27T21:11:58.155Z,4.92
2019-04-27T21:14:46.443Z,3.50
2019-04-27T21:17:34.553Z,2.87
2019-04-27T21:20:22.028Z,5.15
2019-04-27T21:23:09.400Z,3.70
2019-04-27T21:25:56.437Z,2.92
2019-04-27T21:28:43.927Z,1.80
2019-04-27T21:31:31.672Z,1.70
2019-04-27T21:34:19.095Z,1.87
2019-04-27T21:37:06.269Z,1.77
2019-04-27T21:39:55.279Z,2.00
2019-04-27T21:42:42.880Z,1.92
2019-04-27T21:45:31.789Z,7.85
2019-04-27T21:48:21.060Z,4.05
2019-04-27T21:51:08.006Z,3.30
2019-04-27T21:53:59.947Z,3.40
2019-04-27T21:56:47.177Z,2.98
2019-04-27T21:59:34.643Z,2.87
2019-04-27T22:02:22.264Z,3.00
2019-04-27T22:05:12.165Z,2.33
2019-04-27T22:07:58.034Z,2.30
2019-04-27T22:13:31.328Z,2.00
2019-04-27T22:16:18.867Z,2.55
2019-04-27T22:19:06.834Z,2.77
2019-04-27T22:21:54.359Z,2.05
2019-04-27T22:24:43.058Z,2.33
2019-04-27T22:27:30.959Z,2.00
2019-04-27T22:30:18.033Z,2.27
2019-04-27T22:33:05.444Z,2.30
2019-04-27T22:35:53.308Z,2.40
2019-04-27T22:38:41.266Z,2.25
2019-04-27T22:41:31.402Z,2.55
2019-04-27T22:44:23.579Z,2.40
2019-04-27T22:47:11.119Z,2.20
2019-04-27T22:49:59.587Z,2.20
2019-04-27T22:52:46.994Z,2.22
2019-04-27T22:55:36.814Z,2.92
2019-04-27T22:58:24.323Z,2.25
2019-04-27T23:01:13.267Z,1.98
2019-04-27T23:04:02.085Z,2.45
2019-04-27T23:06:49.477Z,2.35
2019-04-27T23:09:36.963Z,2.27
2019-04-27T23:12:24.496Z,2.02
2019-04-27T23:15:13.573Z,2.15
2019-04-27T23:18:00.898Z,2.10
2019-04-27T23:20:47.882Z,2.42
2019-04-27T23:23:35.237Z,2.50
2019-04-27T23:26:22.555Z,1.70
2019-04-27T23:29:13.757Z,2.40
2019-04-27T23:32:01.550Z,2.15
2019-04-27T23:34:48.572Z,2.17
2019-04-27T23:37:36.086Z,1.90
2019-04-27T23:40:23.311Z,2.45
2019-04-27T23:43:11.519Z,2.40
2019-04-27T23:45:59.445Z,2.45
2019-04-27T23:48:46.423Z,2.08
2019-04-27T23:51:41.744Z,2.08
2019-04-27T23:54:28.660Z,2.05
2019-04-27T23:57:16.133Z,2.15
